sensor_id;sensor_type;location;lat;lon;timestamp;P1;durP1;ratioP1;P2;durP2;ratioP2
38479;SDS011;62333;51.980;5.934;2023-02-28T00:01:28;0.30;;;0.10;;
38479;SDS011;62333;51.980;5.934;2023-02-28T00:03:54;0.13;;;0.00;;
38479;SDS011;62333;51.980;5.934;2023-02-28T00:06:20;0.28;;;0.00;;
38479;SDS011;62333;51.980;5.934;2023-02-28T00:08:45;0.10;;;0.00;;
38479;SDS011;62333;51.980;5.934;2023-02-28T00:11:13;0.25;;;0.08;;
38479;SDS011;62333;51.980;5.934;2023-02-28T00:13:40;0.20;;;0.10;;
38479;SDS011;62333;51.980;5.934;2023-02-28T00:16:11;0.10;;;0.08;;
38479;SDS011;62333;51.980;5.934;2023-02-28T00:18:40;0.10;;;0.00;;
38479;SDS011;62333;51.980;5.934;2023-02-28T00:21:06;0.95;;;0.00;;
38479;SDS011;62333;51.980;5.934;2023-02-28T00:23:32;0.10;;;0.00;;
38479;SDS011;62333;51.980;5.934;2023-02-28T00:25:58;0.10;;;0.10;;
38479;SDS011;62333;51.980;5.934;2023-02-28T00:28:23;0.30;;;0.10;;
38479;SDS011;62333;51.980;5.934;2023-02-28T00:30:49;0.10;;;0.00;;
38479;SDS011;62333;51.980;5.934;2023-02-28T00:33:15;0.30;;;0.22;;
38479;SDS011;62333;51.980;5.934;2023-02-28T00:35:41;0.20;;;0.10;;
38479;SDS011;62333;51.980;5.934;2023-02-28T00:38:07;0.10;;;0.00;;
38479;SDS011;62333;51.980;5.934;2023-02-28T00:40:33;0.65;;;0.30;;
38479;SDS011;62333;51.980;5.934;2023-02-28T00:42:58;0.10;;;0.00;;
38479;SDS011;62333;51.980;5.934;2023-02-28T00:45:24;0.22;;;0.05;;
38479;SDS011;62333;51.980;5.934;2023-02-28T00:47:50;0.20;;;0.00;;
38479;SDS011;62333;51.980;5.934;2023-02-28T00:50:17;0.10;;;0.00;;
38479;SDS011;62333;51.980;5.934;2023-02-28T00:52:43;0.00;;;0.00;;
38479;SDS011;62333;51.980;5.934;2023-02-28T00:55:09;0.52;;;0.10;;
38479;SDS011;62333;51.980;5.934;2023-02-28T00:57:35;0.30;;;0.03;;
38479;SDS011;62333;51.980;5.934;2023-02-28T01:00:00;0.20;;;0.00;;
38479;SDS011;62333;51.980;5.934;2023-02-28T01:02:27;0.05;;;0.03;;
38479;SDS011;62333;51.980;5.934;2023-02-28T01:04:53;0.10;;;0.00;;
38479;SDS011;62333;51.980;5.934;2023-02-28T01:07:18;0.28;;;0.05;;
38479;SDS011;62333;51.980;5.934;2023-02-28T01:09:44;0.35;;;0.03;;
38479;SDS011;62333;51.980;5.934;2023-02-28T01:12:10;0.10;;;0.10;;
38479;SDS011;62333;51.980;5.934;2023-02-28T01:14:35;0.00;;;0.00;;
38479;SDS011;62333;51.980;5.934;2023-02-28T01:17:02;0.22;;;0.00;;
38479;SDS011;62333;51.980;5.934;2023-02-28T01:19:27;0.20;;;0.00;;
38479;SDS011;62333;51.980;5.934;2023-02-28T01:21:53;0.05;;;0.00;;
38479;SDS011;62333;51.980;5.934;2023-02-28T01:24:18;0.00;;;0.00;;
38479;SDS011;62333;51.980;5.934;2023-02-28T01:26:44;0.30;;;0.00;;
38479;SDS011;62333;51.980;5.934;2023-02-28T01:29:10;0.15;;;0.05;;
38479;SDS011;62333;51.980;5.934;2023-02-28T01:31:35;0.00;;;0.00;;
38479;SDS011;62333;51.980;5.934;2023-02-28T01:34:01;0.17;;;0.00;;
38479;SDS011;62333;51.980;5.934;2023-02-28T01:36:27;0.10;;;0.00;;
38479;SDS011;62333;51.980;5.934;2023-02-28T01:38:53;0.10;;;0.00;;
38479;SDS011;62333;51.980;5.934;2023-02-28T01:46:14;0.55;;;0.10;;
38479;SDS011;62333;51.980;5.934;2023-02-28T01:51:25;0.10;;;0.00;;
38479;SDS011;62333;51.980;5.934;2023-02-28T01:53:59;0.15;;;0.10;;
38479;SDS011;62333;51.980;5.934;2023-02-28T01:56:38;0.20;;;0.10;;
38479;SDS011;62333;51.980;5.934;2023-02-28T01:59:06;0.00;;;0.00;;
38479;SDS011;62333;51.980;5.934;2023-02-28T02:01:32;0.10;;;0.00;;
38479;SDS011;62333;51.980;5.934;2023-02-28T02:03:59;1.05;;;0.10;;
38479;SDS011;62333;51.980;5.934;2023-02-28T02:06:33;0.75;;;0.30;;
38479;SDS011;62333;51.980;5.934;2023-02-28T02:09:09;0.22;;;0.03;;
38479;SDS011;62333;51.980;5.934;2023-02-28T02:11:35;0.10;;;0.00;;
38479;SDS011;62333;51.980;5.934;2023-02-28T02:22:51;0.10;;;0.00;;
38479;SDS011;62333;51.980;5.934;2023-02-28T02:27:59;0.00;;;0.00;;
38479;SDS011;62333;51.980;5.934;2023-02-28T02:35:56;0.57;;;0.30;;
38479;SDS011;62333;51.980;5.934;2023-02-28T02:44:25;0.20;;;0.10;;
38479;SDS011;62333;51.980;5.934;2023-02-28T02:46:55;0.10;;;0.00;;
38479;SDS011;62333;51.980;5.934;2023-02-28T02:49:30;0.40;;;0.00;;
38479;SDS011;62333;51.980;5.934;2023-02-28T02:51:58;0.10;;;0.00;;
38479;SDS011;62333;51.980;5.934;2023-02-28T02:54:30;0.28;;;0.10;;
38479;SDS011;62333;51.980;5.934;2023-02-28T02:57:06;0.08;;;0.00;;
38479;SDS011;62333;51.980;5.934;2023-02-28T02:59:39;0.10;;;0.00;;
38479;SDS011;62333;51.980;5.934;2023-02-28T03:02:06;0.00;;;0.00;;
38479;SDS011;62333;51.980;5.934;2023-02-28T03:04:48;0.00;;;0.00;;
38479;SDS011;62333;51.980;5.934;2023-02-28T03:07:17;0.10;;;0.00;;
38479;SDS011;62333;51.980;5.934;2023-02-28T03:09:50;0.00;;;0.00;;
38479;SDS011;62333;51.980;5.934;2023-02-28T03:12:19;0.43;;;0.10;;
38479;SDS011;62333;51.980;5.934;2023-02-28T03:15:31;0.13;;;0.00;;
38479;SDS011;62333;51.980;5.934;2023-02-28T03:23:21;0.28;;;0.10;;
38479;SDS011;62333;51.980;5.934;2023-02-28T03:26:02;0.22;;;0.10;;
38479;SDS011;62333;51.980;5.934;2023-02-28T03:28:43;0.05;;;0.00;;
38479;SDS011;62333;51.980;5.934;2023-02-28T03:31:17;0.22;;;0.00;;
38479;SDS011;62333;51.980;5.934;2023-02-28T03:36:35;0.38;;;0.10;;
38479;SDS011;62333;51.980;5.934;2023-02-28T03:39:13;0.30;;;0.10;;
38479;SDS011;62333;51.980;5.934;2023-02-28T03:41:44;0.30;;;0.10;;
38479;SDS011;62333;51.980;5.934;2023-02-28T03:44:34;0.10;;;0.00;;
38479;SDS011;62333;51.980;5.934;2023-02-28T03:47:09;0.52;;;0.10;;
38479;SDS011;62333;51.980;5.934;2023-02-28T03:49:49;0.40;;;0.22;;
38479;SDS011;62333;51.980;5.934;2023-02-28T03:52:22;0.25;;;0.00;;
38479;SDS011;62333;51.980;5.934;2023-02-28T03:54:54;0.22;;;0.00;;
38479;SDS011;62333;51.980;5.934;2023-02-28T03:59:59;0.32;;;0.08;;
38479;SDS011;62333;51.980;5.934;2023-02-28T04:02:31;0.10;;;0.10;;
38479;SDS011;62333;51.980;5.934;2023-02-28T04:04:57;0.55;;;0.10;;
38479;SDS011;62333;51.980;5.934;2023-02-28T04:07:24;0.10;;;0.00;;
38479;SDS011;62333;51.980;5.934;2023-02-28T04:09:55;0.22;;;0.13;;
38479;SDS011;62333;51.980;5.934;2023-02-28T04:12:21;0.20;;;0.10;;
38479;SDS011;62333;51.980;5.934;2023-02-28T04:14:48;0.10;;;0.00;;
38479;SDS011;62333;51.980;5.934;2023-02-28T04:17:14;0.10;;;0.00;;
38479;SDS011;62333;51.980;5.934;2023-02-28T04:19:40;0.00;;;0.00;;
38479;SDS011;62333;51.980;5.934;2023-02-28T04:22:07;0.00;;;0.00;;
38479;SDS011;62333;51.980;5.934;2023-02-28T04:24:33;0.22;;;0.10;;
38479;SDS011;62333;51.980;5.934;2023-02-28T04:26:59;0.10;;;0.00;;
38479;SDS011;62333;51.980;5.934;2023-02-28T04:29:29;0.20;;;0.00;;
38479;SDS011;62333;51.980;5.934;2023-02-28T04:31:57;0.20;;;0.00;;
38479;SDS011;62333;51.980;5.934;2023-02-28T04:34:24;0.00;;;0.00;;
38479;SDS011;62333;51.980;5.934;2023-02-28T04:36:53;0.00;;;0.00;;
38479;SDS011;62333;51.980;5.934;2023-02-28T04:39:20;0.00;;;0.00;;
38479;SDS011;62333;51.980;5.934;2023-02-28T04:41:46;0.73;;;0.00;;
38479;SDS011;62333;51.980;5.934;2023-02-28T04:44:12;0.15;;;0.00;;
38479;SDS011;62333;51.980;5.934;2023-02-28T04:46:38;0.55;;;0.00;;
38479;SDS011;62333;51.980;5.934;2023-02-28T04:49:04;0.22;;;0.00;;
38479;SDS011;62333;51.980;5.934;2023-02-28T04:51:30;0.10;;;0.03;;
38479;SDS011;62333;51.980;5.934;2023-02-28T04:53:55;0.10;;;0.00;;
38479;SDS011;62333;51.980;5.934;2023-02-28T04:56:21;0.17;;;0.00;;
38479;SDS011;62333;51.980;5.934;2023-02-28T04:58:47;0.10;;;0.00;;
38479;SDS011;62333;51.980;5.934;2023-02-28T05:01:18;0.00;;;0.00;;
38479;SDS011;62333;51.980;5.934;2023-02-28T05:03:48;0.10;;;0.00;;
38479;SDS011;62333;51.980;5.934;2023-02-28T05:06:15;0.40;;;0.10;;
38479;SDS011;62333;51.980;5.934;2023-02-28T05:08:41;0.22;;;0.10;;
38479;SDS011;62333;51.980;5.934;2023-02-28T05:11:15;0.10;;;0.00;;
38479;SDS011;62333;51.980;5.934;2023-02-28T05:14:01;0.10;;;0.00;;
38479;SDS011;62333;51.980;5.934;2023-02-28T05:16:28;0.30;;;0.20;;
38479;SDS011;62333;51.980;5.934;2023-02-28T05:18:54;0.10;;;0.00;;
38479;SDS011;62333;51.980;5.934;2023-02-28T05:21:33;0.15;;;0.08;;
38479;SDS011;62333;51.980;5.934;2023-02-28T05:24:07;0.30;;;0.10;;
38479;SDS011;62333;51.980;5.934;2023-02-28T05:26:36;0.10;;;0.00;;
38479;SDS011;62333;51.980;5.934;2023-02-28T05:29:03;0.30;;;0.00;;
38479;SDS011;62333;51.980;5.934;2023-02-28T05:31:30;0.52;;;0.13;;
38479;SDS011;62333;51.980;5.934;2023-02-28T05:33:55;0.25;;;0.00;;
38479;SDS011;62333;51.980;5.934;2023-02-28T05:36:21;0.30;;;0.20;;
38479;SDS011;62333;51.980;5.934;2023-02-28T05:38:47;0.10;;;0.00;;
38479;SDS011;62333;51.980;5.934;2023-02-28T05:41:13;0.00;;;0.00;;
38479;SDS011;62333;51.980;5.934;2023-02-28T05:43:39;0.10;;;0.10;;
38479;SDS011;62333;51.980;5.934;2023-02-28T05:46:05;2.63;;;0.30;;
38479;SDS011;62333;51.980;5.934;2023-02-28T05:48:36;0.15;;;0.00;;
38479;SDS011;62333;51.980;5.934;2023-02-28T05:51:03;0.52;;;0.20;;
38479;SDS011;62333;51.980;5.934;2023-02-28T05:53:29;0.15;;;0.00;;
38479;SDS011;62333;51.980;5.934;2023-02-28T05:55:55;1.65;;;0.43;;
38479;SDS011;62333;51.980;5.934;2023-02-28T05:58:21;0.10;;;0.00;;
38479;SDS011;62333;51.980;5.934;2023-02-28T06:00:47;0.40;;;0.10;;
38479;SDS011;62333;51.980;5.934;2023-02-28T06:03:13;0.40;;;0.30;;
38479;SDS011;62333;51.980;5.934;2023-02-28T06:05:38;0.80;;;0.20;;
38479;SDS011;62333;51.980;5.934;2023-02-28T06:08:04;1.25;;;0.60;;
38479;SDS011;62333;51.980;5.934;2023-02-28T06:10:33;0.60;;;0.32;;
38479;SDS011;62333;51.980;5.934;2023-02-28T06:13:00;0.40;;;0.10;;
38479;SDS011;62333;51.980;5.934;2023-02-28T06:15:27;0.10;;;0.00;;
38479;SDS011;62333;51.980;5.934;2023-02-28T06:17:53;0.75;;;0.10;;
38479;SDS011;62333;51.980;5.934;2023-02-28T06:20:21;0.13;;;0.00;;
38479;SDS011;62333;51.980;5.934;2023-02-28T06:22:47;1.15;;;0.10;;
38479;SDS011;62333;51.980;5.934;2023-02-28T06:25:12;0.20;;;0.08;;
38479;SDS011;62333;51.980;5.934;2023-02-28T06:27:38;0.20;;;0.10;;
38479;SDS011;62333;51.980;5.934;2023-02-28T06:30:04;0.45;;;0.10;;
38479;SDS011;62333;51.980;5.934;2023-02-28T06:32:30;0.50;;;0.10;;
38479;SDS011;62333;51.980;5.934;2023-02-28T06:34:56;0.30;;;0.10;;
38479;SDS011;62333;51.980;5.934;2023-02-28T06:37:23;0.28;;;0.10;;
38479;SDS011;62333;51.980;5.934;2023-02-28T06:39:51;0.55;;;0.28;;
38479;SDS011;62333;51.980;5.934;2023-02-28T06:42:17;1.02;;;0.10;;
38479;SDS011;62333;51.980;5.934;2023-02-28T06:44:42;0.30;;;0.00;;
38479;SDS011;62333;51.980;5.934;2023-02-28T06:47:08;0.38;;;0.10;;
38479;SDS011;62333;51.980;5.934;2023-02-28T06:49:34;1.73;;;0.30;;
38479;SDS011;62333;51.980;5.934;2023-02-28T06:52:00;0.20;;;0.03;;
38479;SDS011;62333;51.980;5.934;2023-02-28T06:54:26;0.40;;;0.10;;
38479;SDS011;62333;51.980;5.934;2023-02-28T06:56:52;0.65;;;0.08;;
38479;SDS011;62333;51.980;5.934;2023-02-28T06:59:19;1.33;;;0.32;;
38479;SDS011;62333;51.980;5.934;2023-02-28T07:01:45;0.43;;;0.10;;
38479;SDS011;62333;51.980;5.934;2023-02-28T07:04:11;0.63;;;0.20;;
38479;SDS011;62333;51.980;5.934;2023-02-28T07:06:38;0.10;;;0.00;;
38479;SDS011;62333;51.980;5.934;2023-02-28T07:09:03;0.20;;;0.10;;
38479;SDS011;62333;51.980;5.934;2023-02-28T07:11:29;0.40;;;0.10;;
38479;SDS011;62333;51.980;5.934;2023-02-28T07:13:55;0.50;;;0.20;;
38479;SDS011;62333;51.980;5.934;2023-02-28T07:16:22;1.02;;;0.00;;
38479;SDS011;62333;51.980;5.934;2023-02-28T07:18:49;0.20;;;0.17;;
38479;SDS011;62333;51.980;5.934;2023-02-28T07:21:18;1.02;;;0.10;;
38479;SDS011;62333;51.980;5.934;2023-02-28T07:23:44;0.75;;;0.20;;
38479;SDS011;62333;51.980;5.934;2023-02-28T07:26:14;1.10;;;0.47;;
38479;SDS011;62333;51.980;5.934;2023-02-28T07:28:42;0.30;;;0.10;;
38479;SDS011;62333;51.980;5.934;2023-02-28T07:31:09;0.47;;;0.10;;
38479;SDS011;62333;51.980;5.934;2023-02-28T07:33:36;0.20;;;0.10;;
38479;SDS011;62333;51.980;5.934;2023-02-28T07:36:06;0.35;;;0.10;;
38479;SDS011;62333;51.980;5.934;2023-02-28T07:38:34;1.08;;;0.20;;
38479;SDS011;62333;51.980;5.934;2023-02-28T07:41:01;0.32;;;0.17;;
38479;SDS011;62333;51.980;5.934;2023-02-28T07:43:30;0.73;;;0.20;;
38479;SDS011;62333;51.980;5.934;2023-02-28T07:46:01;3.20;;;0.52;;
38479;SDS011;62333;51.980;5.934;2023-02-28T07:48:37;0.30;;;0.10;;
38479;SDS011;62333;51.980;5.934;2023-02-28T07:51:03;0.32;;;0.10;;
38479;SDS011;62333;51.980;5.934;2023-02-28T07:53:29;0.20;;;0.10;;
38479;SDS011;62333;51.980;5.934;2023-02-28T07:55:56;0.85;;;0.30;;
38479;SDS011;62333;51.980;5.934;2023-02-28T07:58:22;1.23;;;0.20;;
38479;SDS011;62333;51.980;5.934;2023-02-28T08:00:49;0.65;;;0.08;;
38479;SDS011;62333;51.980;5.934;2023-02-28T08:03:15;0.15;;;0.10;;
38479;SDS011;62333;51.980;5.934;2023-02-28T08:05:43;0.35;;;0.10;;
38479;SDS011;62333;51.980;5.934;2023-02-28T08:08:08;0.95;;;0.10;;
38479;SDS011;62333;51.980;5.934;2023-02-28T08:10:34;1.85;;;0.43;;
38479;SDS011;62333;51.980;5.934;2023-02-28T08:13:00;1.83;;;0.15;;
38479;SDS011;62333;51.980;5.934;2023-02-28T08:15:26;0.40;;;0.15;;
38479;SDS011;62333;51.980;5.934;2023-02-28T08:17:51;1.92;;;0.43;;
38479;SDS011;62333;51.980;5.934;2023-02-28T08:20:17;1.48;;;0.52;;
38479;SDS011;62333;51.980;5.934;2023-02-28T08:22:43;1.23;;;0.20;;
38479;SDS011;62333;51.980;5.934;2023-02-28T08:25:09;1.23;;;0.20;;
38479;SDS011;62333;51.980;5.934;2023-02-28T08:27:35;0.80;;;0.10;;
38479;SDS011;62333;51.980;5.934;2023-02-28T08:30:02;0.77;;;0.10;;
38479;SDS011;62333;51.980;5.934;2023-02-28T08:32:29;0.50;;;0.10;;
38479;SDS011;62333;51.980;5.934;2023-02-28T08:34:56;0.20;;;0.00;;
38479;SDS011;62333;51.980;5.934;2023-02-28T08:37:22;0.57;;;0.20;;
38479;SDS011;62333;51.980;5.934;2023-02-28T08:39:48;1.00;;;0.10;;
38479;SDS011;62333;51.980;5.934;2023-02-28T08:42:13;0.70;;;0.10;;
38479;SDS011;62333;51.980;5.934;2023-02-28T08:44:39;0.52;;;0.10;;
38479;SDS011;62333;51.980;5.934;2023-02-28T08:47:05;0.82;;;0.10;;
38479;SDS011;62333;51.980;5.934;2023-02-28T08:49:31;0.10;;;0.08;;
38479;SDS011;62333;51.980;5.934;2023-02-28T08:51:57;0.20;;;0.10;;
38479;SDS011;62333;51.980;5.934;2023-02-28T08:54:23;9.70;;;0.77;;
38479;SDS011;62333;51.980;5.934;2023-02-28T08:56:49;3.20;;;0.80;;
38479;SDS011;62333;51.980;5.934;2023-02-28T08:59:15;1.48;;;0.50;;
38479;SDS011;62333;51.980;5.934;2023-02-28T09:01:41;1.02;;;0.30;;
38479;SDS011;62333;51.980;5.934;2023-02-28T09:04:08;2.05;;;0.20;;
38479;SDS011;62333;51.980;5.934;2023-02-28T09:06:35;0.60;;;0.30;;
38479;SDS011;62333;51.980;5.934;2023-02-28T09:09:01;2.78;;;0.32;;
38479;SDS011;62333;51.980;5.934;2023-02-28T09:11:29;1.95;;;0.40;;
38479;SDS011;62333;51.980;5.934;2023-02-28T09:13:55;2.97;;;0.30;;
38479;SDS011;62333;51.980;5.934;2023-02-28T09:16:21;1.20;;;0.40;;
38479;SDS011;62333;51.980;5.934;2023-02-28T09:18:47;2.42;;;0.40;;
38479;SDS011;62333;51.980;5.934;2023-02-28T09:21:14;1.52;;;0.40;;
38479;SDS011;62333;51.980;5.934;2023-02-28T09:23:42;1.15;;;0.40;;
38479;SDS011;62333;51.980;5.934;2023-02-28T09:26:16;1.02;;;0.38;;
38479;SDS011;62333;51.980;5.934;2023-02-28T09:28:44;1.05;;;0.40;;
38479;SDS011;62333;51.980;5.934;2023-02-28T09:31:12;1.35;;;0.35;;
38479;SDS011;62333;51.980;5.934;2023-02-28T09:33:39;0.85;;;0.40;;
38479;SDS011;62333;51.980;5.934;2023-02-28T09:36:05;1.90;;;0.45;;
38479;SDS011;62333;51.980;5.934;2023-02-28T09:38:31;1.40;;;0.57;;
38479;SDS011;62333;51.980;5.934;2023-02-28T09:40:58;0.50;;;0.20;;
38479;SDS011;62333;51.980;5.934;2023-02-28T09:43:28;0.85;;;0.38;;
38479;SDS011;62333;51.980;5.934;2023-02-28T09:46:07;1.55;;;0.60;;
38479;SDS011;62333;51.980;5.934;2023-02-28T09:48:52;3.33;;;0.30;;
38479;SDS011;62333;51.980;5.934;2023-02-28T09:51:28;1.75;;;0.50;;
38479;SDS011;62333;51.980;5.934;2023-02-28T09:53:55;1.80;;;0.50;;
38479;SDS011;62333;51.980;5.934;2023-02-28T09:56:23;1.48;;;0.38;;
38479;SDS011;62333;51.980;5.934;2023-02-28T10:01:48;2.47;;;0.65;;
38479;SDS011;62333;51.980;5.934;2023-02-28T10:05:18;1.45;;;0.63;;
38479;SDS011;62333;51.980;5.934;2023-02-28T10:10:37;0.68;;;0.30;;
38479;SDS011;62333;51.980;5.934;2023-02-28T10:14:04;1.15;;;0.40;;
38479;SDS011;62333;51.980;5.934;2023-02-28T10:16:37;1.45;;;0.35;;
38479;SDS011;62333;51.980;5.934;2023-02-28T10:22:00;1.13;;;0.40;;
38479;SDS011;62333;51.980;5.934;2023-02-28T10:24:39;1.08;;;0.50;;
38479;SDS011;62333;51.980;5.934;2023-02-28T10:27:17;1.48;;;0.38;;
38479;SDS011;62333;51.980;5.934;2023-02-28T10:29:48;0.65;;;0.30;;
38479;SDS011;62333;51.980;5.934;2023-02-28T10:32:20;1.10;;;0.50;;
38479;SDS011;62333;51.980;5.934;2023-02-28T10:37:25;1.63;;;0.35;;
38479;SDS011;62333;51.980;5.934;2023-02-28T10:39:52;1.40;;;0.50;;
38479;SDS011;62333;51.980;5.934;2023-02-28T10:42:22;0.38;;;0.20;;
38479;SDS011;62333;51.980;5.934;2023-02-28T10:44:57;1.10;;;0.28;;
38479;SDS011;62333;51.980;5.934;2023-02-28T10:47:29;1.30;;;0.30;;
38479;SDS011;62333;51.980;5.934;2023-02-28T10:49:57;0.60;;;0.28;;
38479;SDS011;62333;51.980;5.934;2023-02-28T10:52:36;1.08;;;0.40;;
38479;SDS011;62333;51.980;5.934;2023-02-28T10:55:14;1.10;;;0.20;;
38479;SDS011;62333;51.980;5.934;2023-02-28T10:57:48;1.67;;;0.50;;
38479;SDS011;62333;51.980;5.934;2023-02-28T11:02:44;2.28;;;0.68;;
38479;SDS011;62333;51.980;5.934;2023-02-28T11:05:24;1.05;;;0.50;;
38479;SDS011;62333;51.980;5.934;2023-02-28T11:07:54;0.93;;;0.32;;
38479;SDS011;62333;51.980;5.934;2023-02-28T11:10:23;1.85;;;0.50;;
38479;SDS011;62333;51.980;5.934;2023-02-28T11:12:54;1.10;;;0.32;;
38479;SDS011;62333;51.980;5.934;2023-02-28T11:15:25;1.45;;;0.55;;
38479;SDS011;62333;51.980;5.934;2023-02-28T11:18:38;1.13;;;0.30;;
38479;SDS011;62333;51.980;5.934;2023-02-28T11:20:47;1.08;;;0.30;;
38479;SDS011;62333;51.980;5.934;2023-02-28T11:23:15;1.37;;;0.30;;
38479;SDS011;62333;51.980;5.934;2023-02-28T11:25:47;2.53;;;0.40;;
38479;SDS011;62333;51.980;5.934;2023-02-28T11:28:29;0.80;;;0.43;;
38479;SDS011;62333;51.980;5.934;2023-02-28T11:36:15;1.00;;;0.40;;
38479;SDS011;62333;51.980;5.934;2023-02-28T11:38:41;1.00;;;0.35;;
38479;SDS011;62333;51.980;5.934;2023-02-28T11:49:16;0.93;;;0.45;;
38479;SDS011;62333;51.980;5.934;2023-02-28T11:52:00;0.70;;;0.20;;
38479;SDS011;62333;51.980;5.934;2023-02-28T12:05:46;0.90;;;0.50;;
38479;SDS011;62333;51.980;5.934;2023-02-28T12:13:24;0.75;;;0.20;;
38479;SDS011;62333;51.980;5.934;2023-02-28T12:21:14;2.38;;;0.68;;
38479;SDS011;62333;51.980;5.934;2023-02-28T12:26:42;1.35;;;0.38;;
38479;SDS011;62333;51.980;5.934;2023-02-28T12:29:16;2.72;;;0.45;;
38479;SDS011;62333;51.980;5.934;2023-02-28T12:34:43;1.70;;;0.50;;
38479;SDS011;62333;51.980;5.934;2023-02-28T12:37:25;1.90;;;0.50;;
38479;SDS011;62333;51.980;5.934;2023-02-28T12:40:00;4.25;;;0.65;;
38479;SDS011;62333;51.980;5.934;2023-02-28T12:42:53;1.80;;;0.45;;
38479;SDS011;62333;51.980;5.934;2023-02-28T12:45:42;1.88;;;0.50;;
38479;SDS011;62333;51.980;5.934;2023-02-28T12:48:25;1.58;;;0.50;;
38479;SDS011;62333;51.980;5.934;2023-02-28T12:51:04;1.85;;;1.23;;
38479;SDS011;62333;51.980;5.934;2023-02-28T12:56:42;1.42;;;0.40;;
38479;SDS011;62333;51.980;5.934;2023-02-28T13:05:10;1.45;;;0.70;;
38479;SDS011;62333;51.980;5.934;2023-02-28T13:08:23;1.70;;;0.50;;
38479;SDS011;62333;51.980;5.934;2023-02-28T13:13:28;2.17;;;0.30;;
38479;SDS011;62333;51.980;5.934;2023-02-28T13:16:03;1.00;;;0.30;;
38479;SDS011;62333;51.980;5.934;2023-02-28T13:18:32;1.08;;;0.30;;
38479;SDS011;62333;51.980;5.934;2023-02-28T13:20:58;1.13;;;0.55;;
38479;SDS011;62333;51.980;5.934;2023-02-28T13:26:08;0.82;;;0.40;;
38479;SDS011;62333;51.980;5.934;2023-02-28T13:34:21;1.67;;;0.45;;
38479;SDS011;62333;51.980;5.934;2023-02-28T13:36:46;1.38;;;0.50;;
38479;SDS011;62333;51.980;5.934;2023-02-28T13:39:55;1.13;;;0.38;;
38479;SDS011;62333;51.980;5.934;2023-02-28T13:47:30;1.52;;;0.50;;
38479;SDS011;62333;51.980;5.934;2023-02-28T14:04:29;3.17;;;0.75;;
38479;SDS011;62333;51.980;5.934;2023-02-28T14:07:29;1.00;;;0.40;;
38479;SDS011;62333;51.980;5.934;2023-02-28T14:10:25;1.75;;;0.28;;
38479;SDS011;62333;51.980;5.934;2023-02-28T14:15:40;1.80;;;0.65;;
38479;SDS011;62333;51.980;5.934;2023-02-28T14:20:50;1.20;;;0.40;;
38479;SDS011;62333;51.980;5.934;2023-02-28T14:26:36;3.20;;;1.00;;
38479;SDS011;62333;51.980;5.934;2023-02-28T14:29:30;1.27;;;0.40;;
38479;SDS011;62333;51.980;5.934;2023-02-28T14:37:37;0.60;;;0.30;;
38479;SDS011;62333;51.980;5.934;2023-02-28T14:40:11;1.90;;;0.30;;
38479;SDS011;62333;51.980;5.934;2023-02-28T14:42:46;1.33;;;0.50;;
38479;SDS011;62333;51.980;5.934;2023-02-28T14:45:20;1.40;;;0.32;;
38479;SDS011;62333;51.980;5.934;2023-02-28T14:47:46;2.83;;;0.43;;
38479;SDS011;62333;51.980;5.934;2023-02-28T14:50:22;0.90;;;0.30;;
38479;SDS011;62333;51.980;5.934;2023-02-28T14:52:52;1.83;;;0.50;;
38479;SDS011;62333;51.980;5.934;2023-02-28T14:55:21;2.92;;;0.98;;
38479;SDS011;62333;51.980;5.934;2023-02-28T14:57:56;3.00;;;0.40;;
38479;SDS011;62333;51.980;5.934;2023-02-28T15:00:27;2.05;;;0.60;;
38479;SDS011;62333;51.980;5.934;2023-02-28T15:02:55;1.45;;;0.50;;
38479;SDS011;62333;51.980;5.934;2023-02-28T15:08:06;0.95;;;0.32;;
38479;SDS011;62333;51.980;5.934;2023-02-28T15:10:41;2.67;;;0.98;;
38479;SDS011;62333;51.980;5.934;2023-02-28T15:13:11;1.17;;;0.60;;
38479;SDS011;62333;51.980;5.934;2023-02-28T15:18:10;2.60;;;0.50;;
38479;SDS011;62333;51.980;5.934;2023-02-28T15:20:52;1.48;;;0.52;;
38479;SDS011;62333;51.980;5.934;2023-02-28T15:23:19;1.65;;;0.30;;
38479;SDS011;62333;51.980;5.934;2023-02-28T15:25:46;1.30;;;0.30;;
38479;SDS011;62333;51.980;5.934;2023-02-28T15:28:14;2.65;;;0.40;;
38479;SDS011;62333;51.980;5.934;2023-02-28T15:30:50;1.17;;;0.47;;
38479;SDS011;62333;51.980;5.934;2023-02-28T15:36:03;1.00;;;0.40;;
38479;SDS011;62333;51.980;5.934;2023-02-28T15:38:50;0.85;;;0.40;;
38479;SDS011;62333;51.980;5.934;2023-02-28T15:41:26;1.33;;;0.38;;
38479;SDS011;62333;51.980;5.934;2023-02-28T15:47:14;2.90;;;0.47;;
38479;SDS011;62333;51.980;5.934;2023-02-28T15:52:42;1.95;;;0.63;;
38479;SDS011;62333;51.980;5.934;2023-02-28T15:55:11;3.55;;;0.47;;
38479;SDS011;62333;51.980;5.934;2023-02-28T15:57:48;1.38;;;0.50;;
38479;SDS011;62333;51.980;5.934;2023-02-28T16:00:24;1.77;;;0.40;;
38479;SDS011;62333;51.980;5.934;2023-02-28T16:02:51;0.93;;;0.35;;
38479;SDS011;62333;51.980;5.934;2023-02-28T16:05:19;3.92;;;1.50;;
38479;SDS011;62333;51.980;5.934;2023-02-28T16:07:53;1.48;;;0.60;;
38479;SDS011;62333;51.980;5.934;2023-02-28T16:10:20;1.60;;;0.73;;
38479;SDS011;62333;51.980;5.934;2023-02-28T16:12:50;0.82;;;0.30;;
38479;SDS011;62333;51.980;5.934;2023-02-28T16:15:19;1.98;;;0.60;;
38479;SDS011;62333;51.980;5.934;2023-02-28T16:17:47;1.92;;;0.52;;
38479;SDS011;62333;51.980;5.934;2023-02-28T16:20:31;3.17;;;0.95;;
38479;SDS011;62333;51.980;5.934;2023-02-28T16:22:57;1.90;;;0.70;;
38479;SDS011;62333;51.980;5.934;2023-02-28T16:25:33;0.90;;;0.45;;
38479;SDS011;62333;51.980;5.934;2023-02-28T16:28:05;1.35;;;0.40;;
38479;SDS011;62333;51.980;5.934;2023-02-28T16:30:38;1.00;;;0.30;;
38479;SDS011;62333;51.980;5.934;2023-02-28T16:33:03;1.20;;;0.43;;
38479;SDS011;62333;51.980;5.934;2023-02-28T16:35:29;1.13;;;0.70;;
38479;SDS011;62333;51.980;5.934;2023-02-28T16:37:55;1.60;;;0.50;;
38479;SDS011;62333;51.980;5.934;2023-02-28T16:40:22;1.77;;;0.60;;
38479;SDS011;62333;51.980;5.934;2023-02-28T16:42:50;1.92;;;0.65;;
38479;SDS011;62333;51.980;5.934;2023-02-28T16:45:22;1.58;;;0.80;;
38479;SDS011;62333;51.980;5.934;2023-02-28T16:47:49;2.17;;;0.40;;
38479;SDS011;62333;51.980;5.934;2023-02-28T16:50:16;1.42;;;0.80;;
38479;SDS011;62333;51.980;5.934;2023-02-28T16:52:44;2.13;;;0.38;;
38479;SDS011;62333;51.980;5.934;2023-02-28T16:55:10;1.70;;;0.60;;
38479;SDS011;62333;51.980;5.934;2023-02-28T16:57:36;1.73;;;0.55;;
38479;SDS011;62333;51.980;5.934;2023-02-28T17:00:04;1.75;;;0.50;;
38479;SDS011;62333;51.980;5.934;2023-02-28T17:02:33;1.25;;;0.47;;
38479;SDS011;62333;51.980;5.934;2023-02-28T17:04:59;2.30;;;0.60;;
38479;SDS011;62333;51.980;5.934;2023-02-28T17:07:25;1.55;;;0.55;;
38479;SDS011;62333;51.980;5.934;2023-02-28T17:09:51;4.13;;;1.20;;
38479;SDS011;62333;51.980;5.934;2023-02-28T17:12:16;2.88;;;0.70;;
38479;SDS011;62333;51.980;5.934;2023-02-28T17:14:42;2.65;;;0.52;;
38479;SDS011;62333;51.980;5.934;2023-02-28T17:17:10;2.33;;;0.50;;
38479;SDS011;62333;51.980;5.934;2023-02-28T17:19:43;3.00;;;0.80;;
38479;SDS011;62333;51.980;5.934;2023-02-28T17:22:09;4.55;;;0.60;;
38479;SDS011;62333;51.980;5.934;2023-02-28T17:24:35;1.48;;;0.40;;
38479;SDS011;62333;51.980;5.934;2023-02-28T17:27:01;2.17;;;0.50;;
38479;SDS011;62333;51.980;5.934;2023-02-28T17:29:27;1.42;;;0.40;;
38479;SDS011;62333;51.980;5.934;2023-02-28T17:31:52;2.67;;;0.68;;
38479;SDS011;62333;51.980;5.934;2023-02-28T17:34:18;2.60;;;1.27;;
38479;SDS011;62333;51.980;5.934;2023-02-28T17:36:49;2.90;;;0.77;;
38479;SDS011;62333;51.980;5.934;2023-02-28T17:39:17;2.13;;;0.52;;
38479;SDS011;62333;51.980;5.934;2023-02-28T17:41:53;2.97;;;0.80;;
38479;SDS011;62333;51.980;5.934;2023-02-28T17:44:20;2.13;;;0.50;;
38479;SDS011;62333;51.980;5.934;2023-02-28T17:46:47;3.03;;;0.90;;
38479;SDS011;62333;51.980;5.934;2023-02-28T17:49:14;1.13;;;0.50;;